31LL weather

Seeman Airport
Chenoa, Illinois, United States

Public forecast

Using degrees Fahrenheit for public forecast. Weather courtesy of forecast.io.

METAR (pilot weather report)

Closest report is Pontiac Municipal Airport, 9.0 nm (16.6 km) NNE. Retrieved 2019/08/23 10:35 UTC (0 seconds ago):

KPNT 231035Z AUTO 00000KT 10SM CLR 15/13 A3012 RMK AO2 T01520130

TAF (pilot weather forecast)

Closest forecast is Central Illinois Regional Airport at Bloomington-Normal, 21.4 nm (39.6 km) SSW. Retrieved 2019/08/23 06:22 UTC (4 hours ago):

TAF KBMI 230520Z 2306/2406 05008KT P6SM BKN250 FM231600 07012KT P6SM FEW045 BKN200 FM240000 06008KT P6SM SCT250